createdAt,value
2018-07-27T00:00:35.840Z,0.00
2018-07-27T00:01:35.837Z,0.00
2018-07-27T00:02:35.835Z,0.00
2018-07-27T00:03:35.831Z,0.00
2018-07-27T00:04:35.830Z,0.00
2018-07-27T00:05:35.823Z,0.00
2018-07-27T00:06:35.823Z,0.00
2018-07-27T00:07:35.817Z,0.00
2018-07-27T00:08:35.810Z,0.00
2018-07-27T00:09:35.809Z,0.00
2018-07-27T00:10:35.806Z,0.00
2018-07-27T00:11:35.801Z,0.00
2018-07-27T00:12:35.799Z,0.00
2018-07-27T00:13:35.794Z,0.00
2018-07-27T00:14:35.793Z,0.00
2018-07-27T00:15:35.786Z,0.00
2018-07-27T00:16:35.783Z,0.00
2018-07-27T00:17:35.788Z,0.00
2018-07-27T00:18:35.776Z,0.00
2018-07-27T00:19:35.776Z,0.00
2018-07-27T00:20:35.773Z,0.00
2018-07-27T00:21:35.784Z,0.00
2018-07-27T00:22:35.761Z,0.00
2018-07-27T00:23:35.757Z,0.00
2018-07-27T00:24:35.756Z,0.00
2018-07-27T00:25:35.746Z,0.00
2018-07-27T00:26:35.753Z,0.00
2018-07-27T00:27:35.742Z,0.00
2018-07-27T00:28:35.741Z,0.00
2018-07-27T00:29:35.742Z,0.00
2018-07-27T00:30:35.744Z,0.00
2018-07-27T00:31:35.726Z,0.00
2018-07-27T00:32:35.724Z,0.00
2018-07-27T00:33:35.723Z,0.00
2018-07-27T00:34:35.718Z,0.00
2018-07-27T00:35:35.734Z,0.00
2018-07-27T00:36:35.714Z,0.00
2018-07-27T00:37:35.706Z,0.00
2018-07-27T00:38:35.702Z,0.00
2018-07-27T00:39:35.698Z,0.00
2018-07-27T00:40:35.697Z,0.00
2018-07-27T00:41:35.697Z,0.00
2018-07-27T00:42:35.693Z,0.00
2018-07-27T00:43:35.684Z,0.00
2018-07-27T00:44:35.684Z,0.00
2018-07-27T00:45:35.679Z,0.00
2018-07-27T00:46:35.679Z,0.00
2018-07-27T00:47:35.669Z,0.00
2018-07-27T00:48:35.666Z,0.00
2018-07-27T00:49:35.663Z,0.00
2018-07-27T00:50:35.660Z,0.00
2018-07-27T00:51:35.654Z,0.00
2018-07-27T00:52:35.652Z,0.00
2018-07-27T00:53:35.648Z,0.00
2018-07-27T00:54:35.650Z,0.00
2018-07-27T00:55:35.649Z,0.00
2018-07-27T00:56:35.640Z,0.00
2018-07-27T00:57:35.639Z,0.00
2018-07-27T00:58:35.629Z,0.00
2018-07-27T00:59:35.630Z,0.00
2018-07-27T01:00:35.624Z,0.00
2018-07-27T01:01:35.612Z,0.00
2018-07-27T01:02:35.657Z,0.00
2018-07-27T01:03:35.611Z,0.00
2018-07-27T01:04:35.608Z,0.00
2018-07-27T01:05:35.608Z,0.00
2018-07-27T01:06:35.603Z,0.00
2018-07-27T01:07:35.612Z,0.00
2018-07-27T01:08:35.593Z,0.00
2018-07-27T01:09:35.608Z,0.00
2018-07-27T01:10:35.587Z,0.00
2018-07-27T01:11:35.583Z,0.00
2018-07-27T01:12:35.581Z,0.00
2018-07-27T01:13:35.576Z,0.00
2018-07-27T01:14:35.573Z,0.00
2018-07-27T01:15:35.568Z,0.00
2018-07-27T01:16:35.564Z,0.00
2018-07-27T01:17:35.560Z,0.00
2018-07-27T01:18:35.558Z,0.00
2018-07-27T01:19:35.556Z,0.00
2018-07-27T01:20:35.554Z,0.00
2018-07-27T01:21:35.547Z,0.00
2018-07-27T01:22:35.547Z,0.00
2018-07-27T01:23:35.542Z,0.00
2018-07-27T01:24:35.537Z,0.00
2018-07-27T01:25:35.531Z,0.00
2018-07-27T01:26:35.530Z,0.00
2018-07-27T01:27:35.524Z,0.00
2018-07-27T01:28:35.519Z,0.00
2018-07-27T01:29:35.513Z,0.00
2018-07-27T01:30:35.511Z,0.00
2018-07-27T01:31:35.508Z,0.00
2018-07-27T01:32:35.505Z,0.00
2018-07-27T01:33:35.504Z,0.00
2018-07-27T01:34:35.501Z,0.00
2018-07-27T01:35:35.495Z,0.00
2018-07-27T01:36:35.491Z,0.00
2018-07-27T01:37:35.488Z,0.00
2018-07-27T01:38:35.486Z,0.00
2018-07-27T01:39:35.479Z,0.00
2018-07-27T01:40:35.476Z,0.00
2018-07-27T01:41:35.471Z,0.00
2018-07-27T01:42:35.467Z,0.00
2018-07-27T01:43:35.465Z,0.00
2018-07-27T01:44:35.461Z,0.00
2018-07-27T01:45:35.465Z,0.00
2018-07-27T01:46:35.458Z,0.00
2018-07-27T01:47:35.448Z,0.00
2018-07-27T01:48:35.447Z,0.00
2018-07-27T01:49:35.448Z,0.00
2018-07-27T01:50:35.447Z,0.00
2018-07-27T01:51:35.435Z,0.00
2018-07-27T01:52:35.432Z,0.00
2018-07-27T01:53:35.427Z,0.00
2018-07-27T01:54:35.423Z,0.00
2018-07-27T01:55:35.419Z,0.00
2018-07-27T01:56:35.417Z,0.00
2018-07-27T01:57:35.413Z,0.00
2018-07-27T01:58:35.413Z,0.00
2018-07-27T01:59:35.410Z,0.00
2018-07-27T02:00:35.403Z,0.00
2018-07-27T02:01:35.398Z,0.00
2018-07-27T02:02:35.398Z,0.00
2018-07-27T02:03:35.394Z,0.00
2018-07-27T02:04:35.433Z,0.00
2018-07-27T02:05:35.386Z,0.00
2018-07-27T02:06:35.380Z,0.00
2018-07-27T02:07:35.376Z,0.00
2018-07-27T02:08:35.374Z,0.00
2018-07-27T02:09:35.370Z,0.00
2018-07-27T02:10:35.367Z,0.00
2018-07-27T02:11:35.363Z,0.00
2018-07-27T02:12:35.361Z,0.00
2018-07-27T02:13:35.353Z,0.00
2018-07-27T02:14:35.350Z,0.00
2018-07-27T02:15:35.347Z,0.00
2018-07-27T02:16:35.344Z,0.00
2018-07-27T02:17:35.340Z,0.00
2018-07-27T02:18:35.339Z,0.00
2018-07-27T02:19:35.331Z,0.00
2018-07-27T02:20:35.333Z,0.00
2018-07-27T02:21:35.326Z,0.00
2018-07-27T02:22:35.325Z,0.00
2018-07-27T02:23:35.329Z,0.00
2018-07-27T02:24:35.311Z,0.00
2018-07-27T02:25:35.314Z,0.00
2018-07-27T02:26:35.312Z,0.00
2018-07-27T02:27:35.306Z,0.00
2018-07-27T02:28:35.303Z,0.00
2018-07-27T02:29:35.292Z,0.00
2018-07-27T02:30:35.297Z,0.00
2018-07-27T02:31:35.288Z,0.00
2018-07-27T02:32:35.292Z,0.00
2018-07-27T02:33:35.288Z,0.00
2018-07-27T02:34:35.275Z,0.00
2018-07-27T02:35:35.275Z,0.00
2018-07-27T02:36:35.269Z,0.00
2018-07-27T02:37:35.273Z,0.00
2018-07-27T02:38:35.260Z,0.00
2018-07-27T02:39:35.257Z,0.00
2018-07-27T02:40:35.263Z,0.00
2018-07-27T02:41:35.250Z,0.00
2018-07-27T02:42:35.248Z,0.00
2018-07-27T02:43:35.239Z,0.00
2018-07-27T02:44:35.236Z,0.00
2018-07-27T02:45:35.245Z,0.00
2018-07-27T02:46:35.230Z,0.00
2018-07-27T02:47:35.227Z,0.00
2018-07-27T02:48:35.221Z,0.00
2018-07-27T02:49:35.220Z,0.00
2018-07-27T02:50:35.217Z,0.00
2018-07-27T02:51:35.214Z,0.00
2018-07-27T02:52:35.212Z,0.00
2018-07-27T02:53:35.215Z,0.00
2018-07-27T02:54:35.201Z,0.00
2018-07-27T02:55:35.195Z,0.00
2018-07-27T02:56:35.194Z,0.00
2018-07-27T02:57:35.188Z,0.00
2018-07-27T02:58:35.184Z,0.00
2018-07-27T02:59:35.179Z,0.00
2018-07-27T03:00:35.178Z,0.00
2018-07-27T03:01:35.172Z,0.00
2018-07-27T03:02:35.184Z,0.00
2018-07-27T03:03:35.164Z,0.00
2018-07-27T03:04:35.171Z,0.00
2018-07-27T03:05:35.157Z,0.00
2018-07-27T03:06:35.154Z,0.00
2018-07-27T03:07:35.150Z,0.00
2018-07-27T03:08:35.167Z,0.00
2018-07-27T03:09:35.216Z,0.00
2018-07-27T03:10:35.140Z,0.00
2018-07-27T03:11:35.130Z,0.00
2018-07-27T03:12:35.131Z,0.00
2018-07-27T03:13:35.126Z,0.00
2018-07-27T03:14:35.124Z,0.00
2018-07-27T03:15:35.119Z,0.00
2018-07-27T03:16:35.126Z,0.00
2018-07-27T03:17:35.116Z,0.00
2018-07-27T03:18:35.108Z,0.00
2018-07-27T03:19:35.105Z,0.00
2018-07-27T03:20:35.106Z,0.00
2018-07-27T03:21:35.097Z,0.00
2018-07-27T03:22:35.093Z,0.00
2018-07-27T03:23:35.090Z,0.00
2018-07-27T03:24:35.081Z,0.00
2018-07-27T03:25:35.078Z,0.00
2018-07-27T03:26:35.076Z,0.00
2018-07-27T03:27:35.072Z,0.00
2018-07-27T03:28:35.069Z,0.00
2018-07-27T03:29:35.068Z,0.00
2018-07-27T03:30:35.063Z,0.00
2018-07-27T03:31:35.057Z,0.00
2018-07-27T03:32:35.058Z,0.00
2018-07-27T03:33:35.050Z,0.00
2018-07-27T03:34:35.047Z,0.00
2018-07-27T03:35:35.041Z,0.00
2018-07-27T03:36:35.040Z,0.00
2018-07-27T03:37:35.035Z,0.00
2018-07-27T03:38:35.038Z,0.00
2018-07-27T03:39:35.027Z,0.00
2018-07-27T03:40:35.027Z,12.00
2018-07-27T03:41:35.022Z,24.00
2018-07-27T03:42:35.015Z,20.00
2018-07-27T03:43:35.007Z,24.00
2018-07-27T03:44:35.010Z,28.00
2018-07-27T03:45:35.008Z,24.00
2018-07-27T03:46:34.998Z,20.00
2018-07-27T03:47:34.992Z,16.00
2018-07-27T03:48:34.996Z,16.00
2018-07-27T03:49:34.989Z,20.00
2018-07-27T03:50:34.988Z,20.00
2018-07-27T03:51:34.983Z,28.00
2018-07-27T03:52:34.971Z,28.00
2018-07-27T03:53:34.968Z,28.00
2018-07-27T03:54:34.957Z,28.00
2018-07-27T03:55:34.956Z,32.00
2018-07-27T03:56:34.949Z,36.00
2018-07-27T03:57:34.947Z,36.00
2018-07-27T03:58:34.943Z,40.00
2018-07-27T03:59:34.940Z,40.00
2018-07-27T04:00:34.924Z,44.00
2018-07-27T04:01:34.925Z,44.00
2018-07-27T04:02:34.926Z,48.00
2018-07-27T04:03:34.915Z,52.00
2018-07-27T04:04:34.911Z,52.00
2018-07-27T04:05:34.907Z,56.00
2018-07-27T04:06:34.902Z,60.00
2018-07-27T04:07:34.897Z,64.00
2018-07-27T04:08:34.920Z,68.00
2018-07-27T04:09:34.885Z,68.00
2018-07-27T04:10:34.884Z,72.00
2018-07-27T04:11:34.882Z,76.00
2018-07-27T04:12:34.872Z,80.00
2018-07-27T04:13:34.866Z,84.00
2018-07-27T04:14:34.860Z,84.00
2018-07-27T04:15:34.853Z,88.00
2018-07-27T04:16:34.850Z,92.00
2018-07-27T04:17:34.849Z,96.00
2018-07-27T04:18:34.839Z,100.00
2018-07-27T04:19:34.835Z,104.00
2018-07-27T04:20:34.829Z,104.00
2018-07-27T04:21:34.825Z,108.00
2018-07-27T04:22:34.824Z,112.00
2018-07-27T04:23:34.815Z,116.00
2018-07-27T04:24:34.814Z,120.00
2018-07-27T04:25:34.803Z,124.00
2018-07-27T04:26:34.799Z,128.00
2018-07-27T04:27:34.792Z,132.00
2018-07-27T04:28:34.789Z,132.00
2018-07-27T04:29:34.783Z,136.00
2018-07-27T04:30:34.777Z,140.00
2018-07-27T04:31:34.773Z,144.00
2018-07-27T04:32:34.766Z,144.00
2018-07-27T04:33:34.760Z,148.00
2018-07-27T04:34:34.755Z,152.00
2018-07-27T04:35:34.757Z,156.00
2018-07-27T04:36:34.759Z,160.00
2018-07-27T04:37:34.743Z,164.00
2018-07-27T04:38:34.737Z,164.00
2018-07-27T04:39:34.732Z,168.00
2018-07-27T04:40:34.728Z,172.00
2018-07-27T04:41:34.719Z,176.00
2018-07-27T04:42:34.714Z,180.00
2018-07-27T04:43:34.708Z,188.00
2018-07-27T04:44:34.706Z,192.00
2018-07-27T04:45:34.702Z,196.00
2018-07-27T04:46:34.693Z,204.00
2018-07-27T04:47:34.688Z,208.00
2018-07-27T04:48:34.681Z,212.00
2018-07-27T04:49:34.672Z,220.00
2018-07-27T04:50:34.673Z,220.00
2018-07-27T04:51:34.664Z,228.00
2018-07-27T04:52:34.660Z,232.00
2018-07-27T04:53:34.655Z,236.00
2018-07-27T04:54:34.661Z,240.00
2018-07-27T04:55:34.644Z,244.00
2018-07-27T04:56:34.724Z,252.00
2018-07-27T04:57:34.636Z,256.00
2018-07-27T04:58:34.632Z,260.00
2018-07-27T04:59:34.625Z,260.00
2018-07-27T05:00:34.622Z,268.00
2018-07-27T05:01:34.615Z,272.00
2018-07-27T05:02:34.609Z,272.00
2018-07-27T05:03:34.602Z,276.00
2018-07-27T05:04:34.644Z,284.00
2018-07-27T05:05:34.592Z,284.00
2018-07-27T05:06:34.594Z,288.00
2018-07-27T05:07:34.582Z,292.00
2018-07-27T05:08:34.576Z,300.00
2018-07-27T05:09:34.570Z,304.00
2018-07-27T05:10:34.563Z,312.00
2018-07-27T05:11:34.570Z,324.00
2018-07-27T05:12:34.560Z,336.00
2018-07-27T05:13:34.552Z,348.00
2018-07-27T05:14:34.547Z,356.00
2018-07-27T05:15:34.539Z,364.00
2018-07-27T05:16:34.535Z,372.00
2018-07-27T05:17:34.528Z,376.00
2018-07-27T05:18:34.525Z,384.00
2018-07-27T05:19:34.516Z,388.00
2018-07-27T05:20:34.514Z,392.00
2018-07-27T05:21:34.511Z,400.00
2018-07-27T05:22:34.503Z,404.00
2018-07-27T05:23:34.517Z,412.00
2018-07-27T05:24:34.502Z,416.00
2018-07-27T05:25:34.487Z,420.00
2018-07-27T05:26:34.481Z,428.00
2018-07-27T05:27:34.475Z,432.00
2018-07-27T05:28:34.469Z,436.00
2018-07-27T05:29:34.464Z,444.00
2018-07-27T05:30:34.465Z,448.00
2018-07-27T05:31:34.454Z,452.00
2018-07-27T05:32:34.449Z,460.00
2018-07-27T05:33:34.450Z,464.00
2018-07-27T05:34:34.440Z,468.00
2018-07-27T05:35:34.433Z,472.00
2018-07-27T05:36:34.428Z,480.00
2018-07-27T05:37:34.424Z,484.00
2018-07-27T05:38:34.417Z,492.00
2018-07-27T05:39:34.417Z,496.00
2018-07-27T05:40:34.407Z,508.00
2018-07-27T05:41:34.408Z,512.00
2018-07-27T05:42:34.400Z,520.00
2018-07-27T05:43:34.391Z,532.00
2018-07-27T05:44:34.387Z,536.00
2018-07-27T05:45:34.382Z,548.00
2018-07-27T05:46:34.377Z,552.00
2018-07-27T05:47:34.369Z,564.00
2018-07-27T05:48:34.381Z,568.00
2018-07-27T05:49:34.360Z,576.00
2018-07-27T05:50:34.356Z,580.00
2018-07-27T05:51:34.350Z,588.00
2018-07-27T05:52:34.344Z,596.00
2018-07-27T05:53:34.348Z,600.00
2018-07-27T05:54:34.333Z,612.00
2018-07-27T05:55:34.330Z,616.00
2018-07-27T05:56:34.324Z,620.00
2018-07-27T05:57:34.320Z,628.00
2018-07-27T05:58:34.324Z,632.00
2018-07-27T05:59:34.312Z,644.00
2018-07-27T06:00:34.304Z,648.00
2018-07-27T06:01:34.299Z,652.00
2018-07-27T06:02:34.325Z,660.00
2018-07-27T06:03:34.289Z,668.00
2018-07-27T06:04:34.282Z,672.00
2018-07-27T06:05:34.278Z,680.00
2018-07-27T06:06:34.273Z,684.00
2018-07-27T06:07:34.274Z,696.00
2018-07-27T06:08:34.262Z,700.00
2018-07-27T06:09:34.258Z,704.00
2018-07-27T06:10:34.259Z,712.00
2018-07-27T06:11:34.251Z,720.00
2018-07-27T06:12:34.246Z,724.00
2018-07-27T06:13:34.238Z,728.00
2018-07-27T06:14:34.266Z,736.00
2018-07-27T06:15:34.227Z,740.00
2018-07-27T06:16:34.229Z,748.00
2018-07-27T06:17:34.218Z,756.00
2018-07-27T06:18:34.222Z,756.00
2018-07-27T06:19:34.210Z,768.00
2018-07-27T06:20:34.205Z,772.00
2018-07-27T06:21:34.198Z,780.00
2018-07-27T06:22:34.191Z,784.00
2018-07-27T06:23:34.186Z,792.00
2018-07-27T06:24:34.190Z,800.00
2018-07-27T06:25:34.207Z,804.00
2018-07-27T06:26:34.219Z,808.00
2018-07-27T06:27:34.166Z,812.00
2018-07-27T06:28:34.163Z,816.00
2018-07-27T06:29:34.158Z,820.00
2018-07-27T06:30:34.160Z,824.00
2018-07-27T06:31:34.147Z,828.00
2018-07-27T06:32:34.149Z,832.00
2018-07-27T06:33:34.139Z,836.00
2018-07-27T06:34:34.133Z,840.00
2018-07-27T06:35:34.134Z,848.00
2018-07-27T06:36:34.128Z,852.00
2018-07-27T06:37:34.124Z,860.00
2018-07-27T06:38:34.115Z,864.00
2018-07-27T06:39:34.111Z,868.00
2018-07-27T06:40:34.105Z,872.00
2018-07-27T06:41:34.103Z,880.00
2018-07-27T06:42:34.093Z,884.00
2018-07-27T06:43:34.094Z,888.00
2018-07-27T06:44:34.112Z,896.00
2018-07-27T06:45:34.085Z,900.00
2018-07-27T06:46:34.075Z,904.00
2018-07-27T06:47:34.072Z,912.00
2018-07-27T06:48:34.064Z,920.00
2018-07-27T06:49:34.060Z,924.00
2018-07-27T06:50:34.059Z,932.00
2018-07-27T06:51:34.048Z,948.00
2018-07-27T06:52:34.061Z,952.00
2018-07-27T06:53:34.040Z,960.00
2018-07-27T06:54:34.043Z,972.00
2018-07-27T06:55:34.032Z,980.00
2018-07-27T06:56:34.029Z,984.00
2018-07-27T06:57:34.024Z,992.00
2018-07-27T06:58:34.017Z,1004.00
2018-07-27T06:59:34.012Z,1012.00
2018-07-27T07:00:34.004Z,1020.00
2018-07-27T07:01:34.002Z,1028.00
2018-07-27T07:02:33.998Z,1036.00
2018-07-27T07:03:34.006Z,1048.00
2018-07-27T07:04:33.992Z,1056.00
2018-07-27T07:05:33.984Z,1068.00
2018-07-27T07:06:33.980Z,1084.00
2018-07-27T07:07:33.979Z,1092.00
2018-07-27T07:08:33.968Z,1108.00
2018-07-27T07:09:33.964Z,1116.00
2018-07-27T07:10:33.959Z,1132.00
2018-07-27T07:11:33.954Z,1144.00
2018-07-27T07:12:33.950Z,1156.00
2018-07-27T07:13:33.950Z,1168.00
2018-07-27T07:14:33.993Z,1184.00
2018-07-27T07:15:33.936Z,1200.00
2018-07-27T07:16:33.936Z,1216.00
2018-07-27T07:17:33.926Z,1232.00
2018-07-27T07:18:33.921Z,1248.00
2018-07-27T07:19:33.912Z,1264.00
2018-07-27T07:20:33.945Z,1276.00
2018-07-27T07:21:33.908Z,1292.00
2018-07-27T07:22:33.908Z,1308.00
2018-07-27T07:23:33.909Z,1324.00
2018-07-27T07:24:33.901Z,1336.00
2018-07-27T07:25:34.003Z,1352.00
2018-07-27T07:26:33.884Z,1368.00
2018-07-27T07:27:33.881Z,1380.00
2018-07-27T07:28:33.876Z,1396.00
2018-07-27T07:29:33.873Z,1408.00
2018-07-27T07:30:33.867Z,1424.00
2018-07-27T07:31:33.859Z,1440.00
2018-07-27T07:32:33.867Z,1456.00
2018-07-27T07:33:33.852Z,1472.00
2018-07-27T07:34:33.849Z,1488.00
2018-07-27T07:35:33.844Z,1500.00
2018-07-27T07:36:33.836Z,1520.00
2018-07-27T07:37:33.858Z,1536.00
2018-07-27T07:38:33.842Z,1548.00
2018-07-27T07:39:33.825Z,1564.00
2018-07-27T07:40:33.824Z,1576.00
2018-07-27T07:41:33.814Z,1588.00
2018-07-27T07:42:33.814Z,1600.00
2018-07-27T07:43:33.803Z,1612.00
2018-07-27T07:44:33.816Z,1628.00
2018-07-27T07:45:33.796Z,1648.00
2018-07-27T07:46:33.792Z,1660.00
2018-07-27T07:47:33.788Z,1676.00
2018-07-27T07:48:33.784Z,1688.00
2018-07-27T07:49:33.779Z,1704.00
2018-07-27T07:50:33.773Z,1720.00
2018-07-27T07:51:33.770Z,1740.00
2018-07-27T07:52:33.765Z,1752.00
2018-07-27T07:53:33.762Z,1768.00
2018-07-27T07:54:33.770Z,1788.00
2018-07-27T07:55:33.752Z,1804.00
2018-07-27T07:56:33.748Z,1820.00
2018-07-27T07:57:33.753Z,1836.00
2018-07-27T07:58:33.786Z,1848.00
2018-07-27T07:59:33.735Z,1864.00
2018-07-27T08:00:33.732Z,1876.00
2018-07-27T08:01:33.723Z,1892.00
2018-07-27T08:02:33.724Z,1904.00
2018-07-27T08:03:33.717Z,1916.00
2018-07-27T08:04:33.717Z,1932.00
2018-07-27T08:05:33.774Z,1940.00
2018-07-27T08:06:33.704Z,1956.00
2018-07-27T08:07:33.698Z,1972.00
2018-07-27T08:08:33.696Z,1984.00
2018-07-27T08:09:33.692Z,1992.00
2018-07-27T08:10:33.688Z,2000.00
2018-07-27T08:11:33.683Z,2012.00
2018-07-27T08:12:33.681Z,2032.00
2018-07-27T08:13:33.673Z,2044.00
2018-07-27T08:14:33.670Z,2060.00
2018-07-27T08:15:33.665Z,2072.00
2018-07-27T08:16:33.670Z,2092.00
2018-07-27T08:17:33.657Z,2108.00
2018-07-27T08:18:33.654Z,2120.00
2018-07-27T08:19:33.648Z,2132.00
2018-07-27T08:20:33.644Z,2152.00
2018-07-27T08:21:33.643Z,2160.00
2018-07-27T08:22:33.636Z,2176.00
2018-07-27T08:23:33.628Z,2192.00
2018-07-27T08:24:33.626Z,2204.00
2018-07-27T08:25:33.627Z,2220.00
2018-07-27T08:26:33.638Z,2232.00
2018-07-27T08:27:33.619Z,2248.00
2018-07-27T08:28:33.611Z,2268.00
2018-07-27T08:29:33.608Z,2276.00
2018-07-27T08:30:33.603Z,2292.00
2018-07-27T08:31:33.599Z,2304.00
2018-07-27T08:32:33.609Z,2312.00
2018-07-27T08:33:33.593Z,2324.00
2018-07-27T08:34:33.587Z,2340.00
2018-07-27T08:35:33.583Z,2348.00
2018-07-27T08:36:33.579Z,2360.00
2018-07-27T08:37:33.576Z,2372.00
2018-07-27T08:38:33.571Z,2388.00
2018-07-27T08:39:33.612Z,2396.00
2018-07-27T08:40:33.565Z,2408.00
2018-07-27T08:41:33.561Z,2416.00
2018-07-27T08:42:33.555Z,2428.00
2018-07-27T08:43:33.546Z,2440.00
2018-07-27T08:44:33.551Z,2448.00
2018-07-27T08:45:33.543Z,2460.00
2018-07-27T08:46:33.538Z,2472.00
2018-07-27T08:47:33.533Z,2488.00
2018-07-27T08:48:33.531Z,2496.00
2018-07-27T08:49:33.526Z,2504.00
2018-07-27T08:50:33.531Z,2516.00
2018-07-27T08:51:33.520Z,2528.00
2018-07-27T08:52:33.517Z,2540.00
2018-07-27T08:53:33.515Z,2548.00
2018-07-27T08:54:33.507Z,2556.00
2018-07-27T08:55:33.506Z,2568.00
2018-07-27T08:56:33.501Z,2580.00
2018-07-27T08:57:33.497Z,2588.00
2018-07-27T08:58:33.493Z,2592.00
2018-07-27T08:59:33.490Z,2608.00
2018-07-27T09:00:33.484Z,2624.00
2018-07-27T09:01:33.481Z,2628.00
2018-07-27T09:02:33.480Z,2640.00
2018-07-27T09:03:33.475Z,2648.00
2018-07-27T09:04:33.469Z,2660.00
2018-07-27T09:05:33.478Z,2668.00
2018-07-27T09:06:33.464Z,2680.00
2018-07-27T09:07:33.459Z,2692.00
2018-07-27T09:08:33.458Z,2700.00
2018-07-27T09:09:33.454Z,2712.00
2018-07-27T09:10:33.451Z,2724.00
2018-07-27T09:11:33.443Z,2736.00
2018-07-27T09:12:33.439Z,2748.00
2018-07-27T09:13:33.440Z,2756.00
2018-07-27T09:14:33.438Z,2764.00
2018-07-27T09:15:33.435Z,2776.00
2018-07-27T09:16:33.426Z,2780.00
2018-07-27T09:17:33.424Z,2788.00
2018-07-27T09:18:33.425Z,2796.00
2018-07-27T09:19:33.419Z,2808.00
2018-07-27T09:20:33.415Z,2816.00
2018-07-27T09:21:33.412Z,2820.00
2018-07-27T09:22:33.406Z,2832.00
2018-07-27T09:23:33.405Z,2832.00
2018-07-27T09:24:33.510Z,2832.00
2018-07-27T09:25:33.395Z,2840.00
2018-07-27T09:26:33.392Z,2844.00
2018-07-27T09:27:33.389Z,2852.00
2018-07-27T09:28:33.394Z,2856.00
2018-07-27T09:29:33.381Z,2864.00
2018-07-27T09:30:33.380Z,2868.00
2018-07-27T09:31:33.375Z,2872.00
2018-07-27T09:32:33.373Z,2880.00
2018-07-27T09:33:33.370Z,2884.00
2018-07-27T09:34:33.365Z,2888.00
2018-07-27T09:35:33.398Z,2896.00
2018-07-27T09:36:33.354Z,2900.00
2018-07-27T09:37:33.356Z,2904.00
2018-07-27T09:38:33.350Z,2916.00
2018-07-27T09:39:33.346Z,2928.00
2018-07-27T09:40:33.365Z,2936.00
2018-07-27T09:41:33.343Z,2936.00
2018-07-27T09:42:33.345Z,2948.00
2018-07-27T09:43:33.332Z,2948.00
2018-07-27T09:44:33.329Z,2944.00
2018-07-27T09:45:33.328Z,2952.00
2018-07-27T09:46:33.376Z,2956.00
2018-07-27T09:47:33.319Z,2952.00
2018-07-27T09:48:33.317Z,2964.00
2018-07-27T09:49:33.314Z,2972.00
2018-07-27T09:50:33.311Z,2980.00
2018-07-27T09:51:33.312Z,2984.00
2018-07-27T09:52:33.303Z,2980.00
2018-07-27T09:53:33.301Z,2988.00
2018-07-27T09:54:33.298Z,2988.00
2018-07-27T09:55:33.293Z,2996.00
2018-07-27T09:56:33.291Z,2988.00
2018-07-27T09:57:33.335Z,2992.00
2018-07-27T09:58:33.291Z,3004.00
2018-07-27T09:59:33.280Z,2996.00
2018-07-27T10:00:33.280Z,3000.00
2018-07-27T10:01:33.273Z,3004.00
2018-07-27T10:02:33.274Z,3012.00
2018-07-27T10:03:33.268Z,3008.00
2018-07-27T10:04:33.261Z,3012.00
2018-07-27T10:05:33.260Z,3012.00
2018-07-27T10:06:33.260Z,3020.00
2018-07-27T10:07:33.253Z,3016.00
2018-07-27T10:08:33.252Z,3020.00
2018-07-27T10:09:33.251Z,3028.00
2018-07-27T10:10:33.246Z,3040.00
2018-07-27T10:11:33.243Z,3044.00
2018-07-27T10:12:33.242Z,3044.00
2018-07-27T10:13:33.239Z,3040.00
2018-07-27T10:14:33.234Z,3040.00
2018-07-27T10:15:33.230Z,3028.00
2018-07-27T10:16:33.228Z,3020.00
2018-07-27T10:17:33.224Z,3020.00
2018-07-27T10:18:33.253Z,3028.00
2018-07-27T10:19:33.217Z,3032.00
2018-07-27T10:20:33.215Z,3036.00
2018-07-27T10:21:33.212Z,3028.00
2018-07-27T10:22:33.209Z,3008.00
2018-07-27T10:23:33.206Z,2988.00
2018-07-27T10:24:33.204Z,2992.00
2018-07-27T10:25:33.198Z,3004.00
2018-07-27T10:26:33.198Z,3004.00
2018-07-27T10:27:33.192Z,3004.00
2018-07-27T10:28:33.190Z,2992.00
2018-07-27T10:29:33.186Z,2996.00
2018-07-27T10:30:33.185Z,3000.00
2018-07-27T10:31:33.179Z,3000.00
2018-07-27T10:32:33.175Z,2984.00
2018-07-27T10:33:33.176Z,2988.00
2018-07-27T10:34:33.171Z,2988.00
2018-07-27T10:35:33.168Z,2984.00
2018-07-27T10:36:33.165Z,2988.00
2018-07-27T10:37:33.165Z,2980.00
2018-07-27T10:38:33.186Z,2984.00
2018-07-27T10:39:33.155Z,2984.00
2018-07-27T10:40:33.154Z,2984.00
2018-07-27T10:41:33.151Z,2984.00
2018-07-27T10:42:33.148Z,2972.00
2018-07-27T10:43:33.146Z,2980.00
2018-07-27T10:44:33.141Z,2968.00
2018-07-27T10:45:33.139Z,2964.00
2018-07-27T10:46:33.136Z,2960.00
2018-07-27T10:47:33.139Z,2952.00
2018-07-27T10:48:33.131Z,2948.00
2018-07-27T10:49:33.128Z,2940.00
2018-07-27T10:50:33.127Z,2932.00
2018-07-27T10:51:33.120Z,2912.00
2018-07-27T10:52:33.128Z,2904.00
2018-07-27T10:53:33.118Z,2892.00
2018-07-27T10:54:33.119Z,2892.00
2018-07-27T10:55:33.110Z,2872.00
2018-07-27T10:56:33.119Z,2880.00
2018-07-27T10:57:33.107Z,2892.00
2018-07-27T10:58:33.109Z,2868.00
2018-07-27T10:59:33.099Z,2844.00
2018-07-27T11:00:33.101Z,2836.00
2018-07-27T11:01:33.092Z,2856.00
2018-07-27T11:02:33.095Z,2848.00
2018-07-27T11:03:33.085Z,2840.00
2018-07-27T11:04:33.081Z,2824.00
2018-07-27T11:05:33.080Z,2824.00
2018-07-27T11:06:33.078Z,2812.00
2018-07-27T11:07:33.072Z,2804.00
2018-07-27T11:08:33.074Z,2788.00
2018-07-27T11:09:33.074Z,2800.00
2018-07-27T11:10:33.066Z,2792.00
2018-07-27T11:11:33.063Z,2788.00
2018-07-27T11:12:33.059Z,2776.00
2018-07-27T11:13:33.062Z,2776.00
2018-07-27T11:14:33.061Z,2736.00
2018-07-27T11:15:33.053Z,2728.00
2018-07-27T11:16:33.050Z,2712.00
2018-07-27T11:17:33.169Z,2668.00
2018-07-27T11:18:33.043Z,2680.00
2018-07-27T11:19:33.040Z,2644.00
2018-07-27T11:20:33.037Z,1120.00
2018-07-27T11:21:33.036Z,1724.00
2018-07-27T11:22:33.034Z,2516.00
2018-07-27T11:23:33.039Z,1948.00
2018-07-27T11:24:33.031Z,2336.00
2018-07-27T11:25:33.049Z,2532.00
2018-07-27T11:26:33.032Z,2488.00
2018-07-27T11:27:33.018Z,2512.00
2018-07-27T11:28:33.017Z,2484.00
2018-07-27T11:29:33.032Z,2432.00
2018-07-27T11:30:33.012Z,2364.00
2018-07-27T11:31:33.010Z,2204.00
2018-07-27T11:32:33.025Z,2304.00
2018-07-27T11:33:33.009Z,1936.00
2018-07-27T11:34:33.005Z,1292.00
2018-07-27T11:35:32.998Z,2272.00
2018-07-27T11:36:32.996Z,2304.00
2018-07-27T11:37:32.989Z,2280.00
2018-07-27T11:38:32.989Z,2060.00
2018-07-27T11:39:32.990Z,1088.00
2018-07-27T11:40:32.985Z,1300.00
2018-07-27T11:41:32.983Z,2196.00
2018-07-27T11:42:32.978Z,2176.00
2018-07-27T11:43:32.974Z,2200.00
2018-07-27T11:44:32.977Z,2216.00
2018-07-27T11:45:32.968Z,2228.00
2018-07-27T11:46:32.965Z,2224.00
2018-07-27T11:47:32.961Z,2192.00
2018-07-27T11:48:32.961Z,2164.00
2018-07-27T11:49:33.004Z,2148.00
2018-07-27T11:50:32.955Z,2124.00
2018-07-27T11:51:32.951Z,2104.00
2018-07-27T11:52:32.948Z,2060.00
2018-07-27T11:53:32.945Z,2036.00
2018-07-27T11:54:32.946Z,2008.00
2018-07-27T11:55:32.946Z,1984.00
2018-07-27T11:56:32.941Z,1956.00
2018-07-27T11:57:32.944Z,1928.00
2018-07-27T11:58:32.931Z,1896.00
2018-07-27T11:59:33.638Z,1868.00
2018-07-27T12:00:32.923Z,1840.00
2018-07-27T12:01:32.955Z,1824.00
2018-07-27T12:02:32.920Z,1816.00
2018-07-27T12:03:32.914Z,1792.00
2018-07-27T12:04:32.912Z,1776.00
2018-07-27T12:05:32.906Z,1752.00
2018-07-27T12:06:32.909Z,1720.00
2018-07-27T12:07:32.902Z,1700.00
2018-07-27T12:08:32.900Z,1692.00
2018-07-27T12:09:32.905Z,1692.00
2018-07-27T12:10:32.898Z,1668.00
2018-07-27T12:11:32.899Z,1652.00
2018-07-27T12:12:32.888Z,1632.00
2018-07-27T12:13:32.886Z,1604.00
2018-07-27T12:14:33.106Z,1576.00
2018-07-27T12:15:32.883Z,1568.00
2018-07-27T12:16:32.878Z,1552.00
2018-07-27T12:17:32.875Z,1544.00
2018-07-27T12:18:32.875Z,1536.00
2018-07-27T12:19:32.868Z,1520.00
2018-07-27T12:20:32.898Z,1496.00
2018-07-27T12:21:33.066Z,1476.00
2018-07-27T12:22:32.866Z,1464.00
2018-07-27T12:23:32.859Z,1456.00
2018-07-27T12:24:32.853Z,1440.00
2018-07-27T12:25:32.853Z,1432.00
2018-07-27T12:26:32.858Z,1420.00
2018-07-27T12:27:32.850Z,1412.00
2018-07-27T12:28:32.845Z,1396.00
2018-07-27T12:29:32.839Z,1380.00
2018-07-27T12:30:32.840Z,1368.00
2018-07-27T12:31:32.835Z,1356.00
2018-07-27T12:32:32.857Z,1352.00